Detall de PIREP

Printer-friendly versionPDF version

[2013/09/12 13:27:00]
Flight IATA:CT3231
Pilot Number:012
Company ICAO:CAT
Aircraft Type:A320/E
PAX:150
Departing Airport: ELLX
Destination Airport: LEPA
Alternate Airport:LEBL
Online: VATSIM
Route:RAPOR UN857 DIRMO UN855 PPG UP84 LORES
Flight Level:F370
No Slew and time accel
No pause
Crash detect
Detect pilot in Cockpit between each 30 and 45 minutes
13:27 Zero fuel Weight: 119250 Lbs, Fuel Weight: 19938 Lbs
13:27 VATSIM:ELLX 121250Z 29007KT 260V320 9999 SCT008 BKN012 12/11 Q1018 NOSIG
13:27 VATSIM:LEPA 121300Z 25008KT 210V330 9999 FEW026 SCT046 26/15 Q1020 NOSIG
13:27 VOICE CATALONIAN
13:31 Parking Brakes off
13:36 Take-off
13:36 Take off Weight: 138273 Lbs
13:36 Wind: 301º @ 008 Knots Heading: 243º
13:36 POS N49º 37´ 38´´ E006º 12´ 46´´
13:36 Gear Up: 164 Knots
13:36 Flaps:3 at 165 Knots
13:37 Flaps:2 at 154 Knots
13:37 Flaps:0 at 172 Knots
13:51 Wind:356º@054 Knots Heading: 253º Ground Speed: 466 Knots Altitude 33106 ft
13:53 TOC
13:53 Fuel Weight: 15043 Lb
14:06 Wind:346º@042 Knots Heading: 181º Ground Speed: 490 Knots Altitude 37198 ft
14:21 Wind:339º@039 Knots Heading: 158º Ground Speed: 488 Knots Altitude 37224 ft
14:36 Wind:324º@041 Knots Heading: 182º Ground Speed: 484 Knots Altitude 37244 ft
14:51 Wind:307º@032 Knots Heading: 188º Ground Speed: 471 Knots Altitude 37198 ft
14:53 TOD
14:53 Fuel Weight: 9908 Lb
15:06 Wind:307º@017 Knots Heading: 152º Ground Speed: 326 Knots Altitude 10744 ft
15:19 Flaps:1 at 225 Knots
15:19 Flaps:3 at 211 Knots
15:19 Gear Down: 206 Knots
15:20 Flaps:4 at 160 Knots
15:20 Flaps:5 at 155 Knots
15:21 Wind:239º@002 Knots Heading: 238º Ground Speed: 144 Knots Altitude 2017 ft
15:23 TouchDown:Rate -109 ft/min Speed: 130 Knots
15:23 Flaps:4 at 58 Knots
15:23 Flaps:0 at 51 Knots
15:23 VATSIM:LEPA 121500Z 23006KT 190V270 9999 FEW030 SCT050 25/16 Q1020 NOSIG
15:23 Land
15:23 Wind:229º@006 Knots
15:23 Heading: 238º
15:23 Flight Duration: 01:47
15:23 Landing Weight: 126702 Lbs
15:23 POS N39º 32´ 52´´ E002º 44´ 46´´
15:25 Parking brakes on
15:25 Block to Block Duration: 01:54
15:25 Final Fuel: 7294 Lbls
15:25 Spent Fuel: 12643 Lbls
15:25 Flight Length: 745 NM
15:25 TOD Land Length: 151 NM

Exportar CSV

Powered by Drupal - Modified by Danger4k